createdAt,value
2018-07-22T00:00:58.166Z,18.50
2018-07-22T00:03:27.673Z,18.50
2018-07-22T00:05:57.098Z,18.40
2018-07-22T00:08:26.600Z,18.40
2018-07-22T00:10:56.151Z,18.40
2018-07-22T00:13:25.607Z,18.40
2018-07-22T00:15:55.120Z,18.40
2018-07-22T00:18:24.610Z,18.30
2018-07-22T00:20:54.105Z,18.30
2018-07-22T00:23:23.647Z,18.30
2018-07-22T00:25:53.120Z,18.30
2018-07-22T00:28:22.667Z,18.20
2018-07-22T00:30:52.149Z,18.20
2018-07-22T00:33:21.645Z,18.20
2018-07-22T00:35:51.157Z,18.10
2018-07-22T00:38:20.698Z,18.10
2018-07-22T00:40:50.262Z,18.10
2018-07-22T00:43:19.820Z,18.10
2018-07-22T00:45:49.305Z,18.10
2018-07-22T00:48:18.847Z,18.00
2018-07-22T00:50:48.311Z,18.00
2018-07-22T00:53:17.962Z,18.00
2018-07-22T00:55:47.445Z,18.00
2018-07-22T00:58:16.945Z,17.90
2018-07-22T01:00:46.487Z,17.90
2018-07-22T01:03:15.964Z,17.90
2018-07-22T01:05:45.409Z,17.90
2018-07-22T01:08:14.899Z,17.90
2018-07-22T01:10:44.780Z,17.80
2018-07-22T01:13:14.250Z,17.80
2018-07-22T01:15:43.719Z,17.80
2018-07-22T01:18:13.231Z,17.80
2018-07-22T01:20:42.867Z,17.80
2018-07-22T01:23:12.338Z,17.80
2018-07-22T01:25:41.825Z,17.70
2018-07-22T01:28:11.327Z,17.70
2018-07-22T01:30:41.421Z,17.70
2018-07-22T01:33:10.877Z,17.70
2018-07-22T01:38:09.263Z,17.70
2018-07-22T01:40:38.769Z,17.70
2018-07-22T01:43:08.565Z,17.70
2018-07-22T01:45:38.166Z,17.70
2018-07-22T01:48:07.679Z,17.60
2018-07-22T01:50:37.165Z,17.60
2018-07-22T01:53:06.692Z,17.60
2018-07-22T01:55:36.201Z,17.60
2018-07-22T01:58:05.814Z,17.60
2018-07-22T02:00:35.272Z,17.60
2018-07-22T02:03:04.774Z,17.60
2018-07-22T02:05:34.225Z,17.50
2018-07-22T02:08:03.704Z,17.50
2018-07-22T02:10:33.130Z,17.50
2018-07-22T02:13:02.569Z,17.50
2018-07-22T02:15:32.106Z,17.50
2018-07-22T02:18:01.597Z,17.40
2018-07-22T02:20:31.092Z,17.40
2018-07-22T02:23:00.663Z,17.40
2018-07-22T02:25:30.077Z,17.40
2018-07-22T02:30:28.615Z,17.40
2018-07-22T02:32:58.025Z,17.40
2018-07-22T02:35:27.491Z,17.40
2018-07-22T02:37:56.938Z,17.40
2018-07-22T02:40:26.434Z,17.30
2018-07-22T02:42:55.898Z,17.30
2018-07-22T02:45:25.309Z,17.30
2018-07-22T02:47:54.861Z,17.30
2018-07-22T02:50:24.340Z,17.30
2018-07-22T02:52:53.979Z,17.30
2018-07-22T02:55:23.452Z,17.40
2018-07-22T02:57:53.114Z,17.30
2018-07-22T03:00:22.708Z,17.30
2018-07-22T03:02:52.233Z,17.30
2018-07-22T03:05:21.724Z,17.30
2018-07-22T03:07:51.150Z,17.30
2018-07-22T03:10:20.760Z,17.30
2018-07-22T03:12:50.273Z,17.30
2018-07-22T03:15:19.781Z,17.30
2018-07-22T03:17:49.264Z,17.30
2018-07-22T03:20:18.797Z,17.30
2018-07-22T03:22:48.409Z,17.30
2018-07-22T03:25:17.844Z,17.30
2018-07-22T03:27:47.310Z,17.30
2018-07-22T03:30:16.800Z,17.30
2018-07-22T03:32:46.482Z,17.30
2018-07-22T03:35:16.060Z,17.30
2018-07-22T03:37:45.531Z,17.30
2018-07-22T03:40:15.205Z,17.30
2018-07-22T03:42:44.690Z,17.30
2018-07-22T03:45:14.323Z,17.30
2018-07-22T03:47:43.912Z,17.30
2018-07-22T03:50:13.327Z,17.30
2018-07-22T03:52:42.832Z,17.30
2018-07-22T03:55:12.336Z,17.30
2018-07-22T03:57:41.949Z,17.40
2018-07-22T04:00:11.560Z,17.40
2018-07-22T04:02:40.983Z,17.40
2018-07-22T04:05:10.482Z,17.50
2018-07-22T04:07:40.004Z,17.50
2018-07-22T04:10:09.466Z,17.50
2018-07-22T04:12:39.001Z,17.50
2018-07-22T04:15:08.616Z,17.60
2018-07-22T04:17:38.201Z,17.60
2018-07-22T04:20:07.736Z,17.60
2018-07-22T04:22:37.221Z,17.60
2018-07-22T04:25:06.752Z,17.60
2018-07-22T04:27:36.468Z,17.70
2018-07-22T04:30:06.289Z,17.60
2018-07-22T04:32:35.752Z,17.70
2018-07-22T04:35:05.276Z,17.70
2018-07-22T04:37:34.808Z,17.80
2018-07-22T04:40:04.751Z,17.80
2018-07-22T04:42:34.444Z,17.80
2018-07-22T04:45:04.233Z,17.80
2018-07-22T04:47:33.856Z,17.90
2018-07-22T04:50:03.584Z,17.90
2018-07-22T04:52:33.158Z,17.90
2018-07-22T04:55:02.810Z,17.90
2018-07-22T04:57:32.422Z,18.00
2018-07-22T05:00:01.895Z,18.00
2018-07-22T05:02:31.422Z,18.10
2018-07-22T05:05:01.050Z,18.20
2018-07-22T05:07:30.543Z,18.20
2018-07-22T05:10:00.071Z,18.30
2018-07-22T05:12:29.554Z,18.30
2018-07-22T05:14:59.089Z,18.30
2018-07-22T05:17:28.735Z,18.40
2018-07-22T05:19:58.291Z,18.40
2018-07-22T05:22:27.756Z,18.40
2018-07-22T05:24:57.224Z,18.50
2018-07-22T05:27:26.864Z,18.50
2018-07-22T05:29:56.360Z,18.50
2018-07-22T05:32:25.918Z,18.60
2018-07-22T05:34:55.367Z,18.60
2018-07-22T05:37:24.864Z,18.60
2018-07-22T05:39:54.384Z,18.70
2018-07-22T05:44:52.971Z,18.80
2018-07-22T05:47:22.475Z,18.80
2018-07-22T05:49:52.010Z,18.90
2018-07-22T05:52:21.593Z,18.90
2018-07-22T05:54:51.235Z,18.90
2018-07-22T05:57:20.948Z,19.00
2018-07-22T05:59:50.556Z,19.10
2018-07-22T06:02:20.274Z,19.10
2018-07-22T06:04:49.988Z,19.20
2018-07-22T06:07:19.501Z,19.30
2018-07-22T06:09:48.986Z,19.40
2018-07-22T06:12:19.576Z,19.40
2018-07-22T06:14:49.153Z,19.50
2018-07-22T06:17:18.737Z,19.60
2018-07-22T06:19:48.321Z,19.60
2018-07-22T06:22:17.882Z,19.70
2018-07-22T06:24:47.390Z,19.80
2018-07-22T06:27:16.901Z,19.80
2018-07-22T06:29:46.479Z,19.90
2018-07-22T06:32:15.971Z,20.00
2018-07-22T06:34:45.560Z,20.00
2018-07-22T06:37:15.022Z,20.10
2018-07-22T06:39:44.498Z,20.20
2018-07-22T06:42:14.147Z,20.30
2018-07-22T06:44:43.775Z,20.40
2018-07-22T06:47:15.520Z,20.50
2018-07-22T06:49:45.349Z,20.50
2018-07-22T06:52:14.842Z,20.70
2018-07-22T06:54:44.245Z,20.70
2018-07-22T06:57:13.903Z,20.80
2018-07-22T06:59:43.438Z,20.80
2018-07-22T07:02:13.764Z,20.90
2018-07-22T07:07:12.321Z,21.00
2018-07-22T07:09:41.777Z,21.10
2018-07-22T07:12:11.341Z,21.20
2018-07-22T07:14:40.800Z,21.30
2018-07-22T07:19:39.216Z,21.40
2018-07-22T07:22:08.765Z,21.40
2018-07-22T07:24:38.263Z,21.40
2018-07-22T07:27:07.767Z,21.40
2018-07-22T07:29:37.228Z,21.40
2018-07-22T07:32:07.219Z,21.40
2018-07-22T07:37:06.023Z,21.40
2018-07-22T07:39:35.513Z,21.50
2018-07-22T07:42:05.090Z,21.50
2018-07-22T07:44:34.680Z,21.60
2018-07-22T07:49:33.773Z,21.70
2018-07-22T07:52:03.694Z,21.80
2018-07-22T07:54:33.308Z,21.80
2018-07-22T07:57:02.863Z,21.90
2018-07-22T08:02:02.919Z,21.90
2018-07-22T08:04:32.773Z,22.00
2018-07-22T08:07:02.891Z,22.00
2018-07-22T08:09:33.032Z,22.00
2018-07-22T08:12:03.585Z,22.10
2018-07-22T08:14:33.351Z,22.20
2018-07-22T08:17:02.848Z,22.30
2018-07-22T08:19:32.976Z,22.40
2018-07-22T08:22:04.641Z,22.50
2018-07-22T08:24:34.384Z,22.60
2018-07-22T08:29:34.208Z,22.70
2018-07-22T08:32:06.093Z,22.70
2018-07-22T08:34:36.912Z,22.80
2018-07-22T08:37:06.991Z,22.90
2018-07-22T08:39:36.625Z,22.90
2018-07-22T08:42:06.541Z,22.90
2018-07-22T08:44:36.175Z,22.90
2018-07-22T08:47:05.996Z,23.10
2018-07-22T08:49:36.266Z,23.10
2018-07-22T08:52:06.077Z,23.20
2018-07-22T08:54:35.802Z,23.30
2018-07-22T08:59:34.768Z,23.40
2018-07-22T09:02:04.644Z,23.40
2018-07-22T09:04:35.511Z,23.50
2018-07-22T09:07:05.035Z,23.60
2018-07-22T09:09:34.542Z,23.70
2018-07-22T09:12:04.154Z,23.80
2018-07-22T09:14:33.667Z,23.90
2018-07-22T09:17:03.355Z,23.90
2018-07-22T09:19:32.938Z,23.90
2018-07-22T09:22:02.819Z,23.90
2018-07-22T09:24:33.004Z,23.90
2018-07-22T09:27:02.499Z,24.00
2018-07-22T09:29:31.948Z,24.10
2018-07-22T09:32:01.455Z,24.20
2018-07-22T09:34:31.150Z,24.30
2018-07-22T09:37:01.090Z,24.40
2018-07-22T09:39:32.070Z,24.60
2018-07-22T09:42:02.154Z,24.70
2018-07-22T09:44:32.649Z,24.60
2018-07-22T09:47:02.092Z,24.70
2018-07-22T09:49:31.767Z,24.80
2018-07-22T09:52:02.569Z,24.90
2018-07-22T09:54:33.100Z,24.90
2018-07-22T09:57:03.658Z,25.00
2018-07-22T10:02:02.218Z,25.10
2018-07-22T10:04:33.643Z,25.00
2018-07-22T10:07:04.009Z,25.10
2018-07-22T10:09:34.444Z,25.10
2018-07-22T10:12:04.224Z,25.30
2018-07-22T10:14:34.126Z,25.40
2018-07-22T10:17:04.346Z,25.50
2018-07-22T10:19:34.000Z,25.60
2018-07-22T10:22:03.594Z,25.60
2018-07-22T10:24:35.127Z,25.60
2018-07-22T10:27:05.190Z,25.70
2018-07-22T10:29:35.926Z,25.80
2018-07-22T10:32:05.640Z,25.80
2018-07-22T10:34:35.712Z,25.90
2018-07-22T10:37:06.243Z,26.00
2018-07-22T10:42:05.518Z,25.80
2018-07-22T10:44:35.705Z,25.80
2018-07-22T10:47:06.760Z,25.80
2018-07-22T10:49:37.024Z,25.80
2018-07-22T10:52:06.523Z,25.70
2018-07-22T10:54:36.855Z,25.70
2018-07-22T10:57:06.367Z,25.70
2018-07-22T10:59:35.870Z,25.80
2018-07-22T11:02:05.540Z,26.00
2018-07-22T11:04:35.093Z,25.90
2018-07-22T11:07:04.654Z,26.00
2018-07-22T11:12:03.149Z,26.00
2018-07-22T11:17:02.024Z,26.10
2018-07-22T11:19:31.597Z,26.20
2018-07-22T11:22:01.272Z,26.20
2018-07-22T11:24:30.833Z,26.20
2018-07-22T11:27:00.377Z,26.20
2018-07-22T11:29:29.930Z,26.10
2018-07-22T11:31:59.490Z,26.20
2018-07-22T11:34:29.715Z,26.20
2018-07-22T11:36:59.196Z,26.20
2018-07-22T11:39:28.736Z,26.20
2018-07-22T11:41:58.242Z,26.30
2018-07-22T11:44:27.782Z,26.30
2018-07-22T11:46:57.876Z,26.20
2018-07-22T11:49:27.586Z,26.20
2018-07-22T11:51:57.098Z,26.20
2018-07-22T11:54:26.715Z,26.30
2018-07-22T11:56:56.222Z,26.40
2018-07-22T11:59:26.065Z,26.50
2018-07-22T12:01:55.975Z,26.60
2018-07-22T12:04:25.554Z,26.70
2018-07-22T12:06:55.240Z,26.80
2018-07-22T12:09:24.838Z,26.80
2018-07-22T12:11:54.431Z,26.80
2018-07-22T12:14:24.215Z,26.90
2018-07-22T12:16:55.180Z,26.90
2018-07-22T12:19:24.770Z,27.00
2018-07-22T12:21:54.228Z,27.10
2018-07-22T12:24:23.804Z,27.20
2018-07-22T12:26:53.249Z,27.40
2018-07-22T12:29:22.768Z,27.50
2018-07-22T12:31:52.266Z,27.70
2018-07-22T12:34:21.840Z,27.80
2018-07-22T12:36:51.330Z,28.00
2018-07-22T12:39:20.786Z,28.10
2018-07-22T12:44:19.340Z,28.20
2018-07-22T12:46:48.906Z,28.30
2018-07-22T12:51:48.851Z,28.50
2018-07-22T12:54:18.373Z,28.40
2018-07-22T12:56:48.019Z,28.40
2018-07-22T12:59:17.464Z,28.50
2018-07-22T13:01:47.343Z,28.40
2018-07-22T13:04:16.928Z,28.30
2018-07-22T13:06:46.740Z,28.30
2018-07-22T13:09:16.285Z,28.20
2018-07-22T13:11:45.801Z,28.10
2018-07-22T13:14:15.303Z,28.10
2018-07-22T13:16:44.885Z,28.10
2018-07-22T13:19:15.446Z,28.00
2018-07-22T13:21:45.162Z,27.90
2018-07-22T13:24:14.768Z,27.80
2018-07-22T13:26:44.276Z,27.70
2018-07-22T13:29:13.775Z,27.90
2018-07-22T13:31:43.300Z,27.90
2018-07-22T13:34:12.757Z,28.00
2018-07-22T13:39:12.236Z,28.00
2018-07-22T13:41:41.949Z,27.90
2018-07-22T13:44:11.669Z,28.00
2018-07-22T13:46:41.376Z,27.80
2018-07-22T13:49:11.049Z,27.70
2018-07-22T13:51:40.596Z,27.70
2018-07-22T13:54:10.125Z,27.60
2018-07-22T13:56:39.694Z,27.90
2018-07-22T13:59:09.233Z,28.00
2018-07-22T14:01:38.735Z,28.30
2018-07-22T14:04:08.271Z,28.40
2018-07-22T14:06:37.813Z,28.70
2018-07-22T14:09:08.970Z,28.60
2018-07-22T14:11:38.616Z,28.40
2018-07-22T14:14:08.640Z,28.00
2018-07-22T14:16:38.254Z,28.00
2018-07-22T14:19:07.915Z,27.70
2018-07-22T14:21:37.622Z,27.60
2018-07-22T14:24:07.248Z,27.60
2018-07-22T14:26:36.773Z,27.50
2018-07-22T14:29:06.236Z,27.60
2018-07-22T14:31:35.748Z,27.70
2018-07-22T14:34:05.326Z,27.90
2018-07-22T14:36:34.934Z,27.90
2018-07-22T14:39:06.909Z,27.80
2018-07-22T14:41:36.511Z,27.70
2018-07-22T14:44:06.127Z,27.80
2018-07-22T14:46:35.794Z,27.80
2018-07-22T14:49:05.374Z,27.80
2018-07-22T14:51:34.958Z,28.00
2018-07-22T14:54:04.442Z,28.20
2018-07-22T14:56:33.911Z,28.10
2018-07-22T14:59:03.489Z,28.10
2018-07-22T15:01:33.021Z,28.00
2018-07-22T15:04:02.809Z,27.90
2018-07-22T15:06:32.386Z,28.00
2018-07-22T15:09:02.295Z,28.00
2018-07-22T15:11:38.039Z,28.30
2018-07-22T15:14:07.806Z,28.40
2018-07-22T15:16:37.205Z,28.60
2018-07-22T15:21:42.587Z,28.60
2018-07-22T15:24:12.167Z,28.50
2018-07-22T15:26:41.816Z,28.40
2018-07-22T15:29:11.406Z,28.40
2018-07-22T15:31:41.021Z,28.30
2018-07-22T15:34:10.941Z,28.40
2018-07-22T15:36:40.568Z,28.60
2018-07-22T15:39:11.798Z,28.50
2018-07-22T15:41:41.307Z,28.60
2018-07-22T15:44:10.923Z,28.70
2018-07-22T15:46:41.044Z,28.70
2018-07-22T15:49:10.760Z,28.70
2018-07-22T15:51:40.465Z,28.70
2018-07-22T15:54:09.982Z,28.70
2018-07-22T15:56:39.591Z,28.90
2018-07-22T15:59:09.104Z,28.90
2018-07-22T16:01:38.570Z,28.80
2018-07-22T16:04:08.096Z,28.70
2018-07-22T16:06:37.629Z,28.60
2018-07-22T16:09:08.989Z,28.50
2018-07-22T16:11:38.458Z,28.60
2018-07-22T16:14:08.152Z,28.70
2018-07-22T16:19:06.938Z,28.80
2018-07-22T16:21:36.431Z,29.00
2018-07-22T16:24:05.972Z,28.90
2018-07-22T16:26:35.517Z,28.80
2018-07-22T16:29:05.153Z,28.90
2018-07-22T16:31:34.868Z,28.80
2018-07-22T16:34:04.571Z,28.90
2018-07-22T16:36:34.147Z,28.90
2018-07-22T16:39:04.739Z,28.90
2018-07-22T16:41:34.383Z,28.80
2018-07-22T16:44:04.111Z,28.80
2018-07-22T16:46:33.853Z,28.70
2018-07-22T16:49:03.453Z,28.70
2018-07-22T16:51:32.988Z,28.80
2018-07-22T16:54:02.607Z,28.80
2018-07-22T16:56:32.313Z,28.60
2018-07-22T16:59:01.820Z,28.60
2018-07-22T17:01:31.332Z,28.50
2018-07-22T17:04:00.921Z,28.30
2018-07-22T17:06:30.376Z,28.10
2018-07-22T17:08:59.883Z,28.00
2018-07-22T17:11:29.396Z,28.10
2018-07-22T17:13:58.939Z,28.10
2018-07-22T17:16:28.489Z,28.10
2018-07-22T17:18:58.104Z,28.10
2018-07-22T17:23:56.708Z,28.00
2018-07-22T17:26:26.304Z,27.80
2018-07-22T17:28:55.833Z,27.80
2018-07-22T17:31:25.429Z,27.70
2018-07-22T17:33:54.924Z,27.60
2018-07-22T17:36:24.566Z,27.60
2018-07-22T17:38:54.198Z,27.50
2018-07-22T17:41:23.636Z,27.40
2018-07-22T17:43:53.159Z,27.30
2018-07-22T17:46:22.805Z,27.30
2018-07-22T17:48:54.081Z,27.30
2018-07-22T17:51:23.757Z,27.10
2018-07-22T17:53:53.378Z,27.00
2018-07-22T17:56:22.941Z,26.90
2018-07-22T17:58:52.557Z,27.00
2018-07-22T18:01:22.140Z,27.00
2018-07-22T18:03:51.623Z,26.80
2018-07-22T18:06:21.158Z,26.80
2018-07-22T18:08:50.734Z,26.80
2018-07-22T18:11:20.459Z,26.80
2018-07-22T18:13:49.998Z,26.80
2018-07-22T18:16:19.628Z,26.60
2018-07-22T18:18:50.314Z,26.60
2018-07-22T18:21:19.959Z,26.50
2018-07-22T18:23:49.530Z,26.50
2018-07-22T18:26:19.251Z,26.40
2018-07-22T18:28:48.851Z,26.30
2018-07-22T18:31:18.503Z,26.10
2018-07-22T18:33:48.334Z,26.00
2018-07-22T18:38:48.968Z,25.60
2018-07-22T18:41:18.632Z,25.50
2018-07-22T18:43:48.218Z,25.30
2018-07-22T18:46:17.879Z,25.30
2018-07-22T18:48:47.543Z,25.10
2018-07-22T18:51:17.114Z,25.10
2018-07-22T18:53:46.841Z,25.00
2018-07-22T18:56:16.444Z,24.80
2018-07-22T18:58:46.028Z,24.70
2018-07-22T19:01:15.556Z,24.50
2018-07-22T19:03:45.107Z,24.40
2018-07-22T19:06:14.583Z,24.30
2018-07-22T19:08:44.455Z,24.20
2018-07-22T19:11:14.078Z,24.10
2018-07-22T19:13:43.609Z,24.00
2018-07-22T19:16:13.323Z,23.90
2018-07-22T19:18:42.972Z,23.80
2018-07-22T19:21:12.509Z,23.80
2018-07-22T19:23:42.309Z,23.70
2018-07-22T19:26:12.076Z,23.70
2018-07-22T19:28:43.627Z,23.60
2018-07-22T19:31:13.467Z,23.60
2018-07-22T19:33:43.164Z,23.50
2018-07-22T19:36:13.086Z,23.40
2018-07-22T19:38:42.996Z,23.30
2018-07-22T19:41:12.815Z,23.30
2018-07-22T19:43:42.529Z,23.20
2018-07-22T19:46:12.393Z,23.10
2018-07-22T19:48:42.117Z,23.00
2018-07-22T19:51:11.977Z,22.90
2018-07-22T19:53:41.853Z,22.80
2018-07-22T19:56:11.506Z,22.70
2018-07-22T20:01:10.149Z,22.50
2018-07-22T20:03:39.741Z,22.40
2018-07-22T20:06:09.443Z,22.30
2018-07-22T20:08:39.269Z,22.20
2018-07-22T20:11:08.777Z,22.10
2018-07-22T20:13:38.375Z,22.00
2018-07-22T20:16:08.293Z,21.90
2018-07-22T20:18:37.907Z,21.90
2018-07-22T20:21:07.516Z,21.80
2018-07-22T20:23:37.100Z,21.70
2018-07-22T20:26:06.851Z,21.60
2018-07-22T20:28:36.738Z,21.50
2018-07-22T20:31:06.748Z,21.40
2018-07-22T20:33:36.290Z,21.30
2018-07-22T20:36:06.401Z,21.20
2018-07-22T20:38:36.332Z,21.20
2018-07-22T20:41:05.960Z,21.10
2018-07-22T20:43:35.557Z,21.00
2018-07-22T20:46:06.189Z,20.90
2018-07-22T20:48:35.739Z,21.00
2018-07-22T20:51:05.358Z,20.80
2018-07-22T20:53:34.928Z,20.80
2018-07-22T20:56:04.541Z,20.70
2018-07-22T20:58:34.043Z,20.60
2018-07-22T21:01:03.664Z,20.60
2018-07-22T21:03:33.255Z,20.50
2018-07-22T21:06:02.882Z,20.50
2018-07-22T21:08:32.333Z,20.40
2018-07-22T21:11:01.895Z,20.40
2018-07-22T21:13:31.503Z,20.30
2018-07-22T21:16:01.039Z,20.20
2018-07-22T21:18:30.596Z,20.20
2018-07-22T21:21:00.163Z,20.10
2018-07-22T21:23:29.596Z,20.00
2018-07-22T21:25:59.060Z,19.90
2018-07-22T21:28:28.667Z,19.90
2018-07-22T21:30:58.486Z,19.80
2018-07-22T21:33:27.895Z,19.70
2018-07-22T21:35:57.388Z,19.60
2018-07-22T21:38:26.911Z,19.60
2018-07-22T21:40:56.375Z,19.60
2018-07-22T21:43:26.020Z,19.50
2018-07-22T21:45:55.536Z,19.50
2018-07-22T21:48:25.044Z,19.40
2018-07-22T21:50:54.554Z,19.30
2018-07-22T21:53:24.169Z,19.30
2018-07-22T21:55:53.633Z,19.20
2018-07-22T21:58:23.082Z,19.10
2018-07-22T22:00:52.591Z,19.10
2018-07-22T22:03:22.083Z,19.00
2018-07-22T22:05:51.508Z,19.00
2018-07-22T22:08:21.103Z,19.00
2018-07-22T22:10:50.627Z,18.90
2018-07-22T22:15:49.139Z,18.80
2018-07-22T22:18:18.643Z,18.80
2018-07-22T22:20:48.168Z,18.70
2018-07-22T22:23:17.627Z,18.70
2018-07-22T22:25:47.149Z,18.70
2018-07-22T22:28:16.649Z,18.60
2018-07-22T22:30:46.373Z,18.60
2018-07-22T22:33:15.839Z,18.60
2018-07-22T22:35:45.314Z,18.50
2018-07-22T22:38:14.797Z,18.50
2018-07-22T22:40:44.211Z,18.50
2018-07-22T22:43:13.708Z,18.40
2018-07-22T22:45:43.129Z,18.40
2018-07-22T22:48:12.654Z,18.30
2018-07-22T22:50:42.078Z,18.30
2018-07-22T22:53:11.489Z,18.20
2018-07-22T22:55:41.058Z,18.20
2018-07-22T22:58:21.535Z,18.20
2018-07-22T23:00:51.115Z,18.10
2018-07-22T23:03:20.623Z,18.10
2018-07-22T23:05:50.083Z,18.10
2018-07-22T23:08:19.692Z,18.10
2018-07-22T23:10:49.165Z,18.00
2018-07-22T23:13:18.637Z,18.00
2018-07-22T23:15:48.180Z,18.00
2018-07-22T23:18:17.669Z,18.00
2018-07-22T23:20:47.232Z,18.00
2018-07-22T23:23:16.805Z,18.00
2018-07-22T23:25:46.241Z,17.90
2018-07-22T23:28:15.863Z,17.90
2018-07-22T23:33:14.337Z,17.90
2018-07-22T23:35:43.851Z,17.80
2018-07-22T23:38:13.377Z,17.80
2018-07-22T23:40:42.861Z,17.80
2018-07-22T23:43:12.362Z,17.80
2018-07-22T23:45:41.903Z,17.70
2018-07-22T23:48:11.522Z,17.70
2018-07-22T23:50:41.027Z,17.70
2018-07-22T23:53:10.635Z,17.60
2018-07-22T23:55:40.194Z,17.60
2018-07-22T23:58:09.690Z,17.50
